Time;durP1;ratioP1;P1;durP2;ratioP2;P2;SDS_P1;SDS_P2;PMS_P1;PMS_P2;Temp;Humidity;BMP_temperature;BMP_pressure;BME280_temperature;BME280_humidity;BME280_pressure;Samples;Min_cycle;Max_cycle;Signal;HPM_P1;HPM_P2
2024/01/10 00:02:03;;;;;;;1999.90;999.90;;;-6.40;99.90;;;;;;5067424;28;20856;-72
2024/01/10 00:04:30;;;;;;;1999.90;999.90;;;-6.40;99.90;;;;;;5063269;28;20511;-72
2024/01/10 00:06:57;;;;;;;1999.90;999.90;;;-6.50;99.90;;;;;;5066474;28;20419;-71
2024/01/10 00:09:23;;;;;;;1999.90;999.90;;;-6.50;99.90;;;;;;5065697;28;20439;-71
2024/01/10 00:11:50;;;;;;;1999.90;999.90;;;-6.40;99.90;;;;;;5070629;28;20431;-71
2024/01/10 00:14:17;;;;;;;1999.90;999.90;;;-6.50;99.90;;;;;;5068984;28;20907;-71
2024/01/10 00:16:45;;;;;;;1999.90;999.90;;;-6.40;99.90;;;;;;5075233;28;20461;-73
2024/01/10 00:19:11;;;;;;;1999.90;999.90;;;-6.60;99.90;;;;;;5071629;28;20407;-71
2024/01/10 00:21:38;;;;;;;1999.90;999.90;;;-6.60;99.90;;;;;;5070695;28;20485;-72
2024/01/10 00:24:05;;;;;;;1999.90;999.90;;;-6.60;99.90;;;;;;5075853;28;20405;-71
2024/01/10 00:26:32;;;;;;;1999.90;999.90;;;-6.70;99.90;;;;;;5075165;28;21106;-72
2024/01/10 00:28:59;;;;;;;1999.90;999.90;;;-6.60;99.90;;;;;;5071205;28;20432;-71
2024/01/10 00:31:25;;;;;;;1999.90;999.90;;;-6.60;99.90;;;;;;5063754;28;20431;-71
2024/01/10 00:33:53;;;;;;;1999.90;999.90;;;-6.60;99.90;;;;;;5067077;28;20493;-70
2024/01/10 00:36:20;;;;;;;1999.90;999.90;;;-6.50;99.90;;;;;;5069094;28;20416;-70
2024/01/10 00:38:47;;;;;;;1999.90;999.90;;;-6.50;99.90;;;;;;5081641;28;20489;-73
2024/01/10 00:41:14;;;;;;;1999.90;999.90;;;-6.30;99.90;;;;;;5091418;28;20419;-73
2024/01/10 00:43:40;;;;;;;1999.90;999.90;;;-6.30;99.90;;;;;;5098637;28;20461;-74
2024/01/10 00:46:07;;;;;;;1999.90;999.90;;;-6.30;99.90;;;;;;5084991;28;20408;-73
2024/01/10 00:48:34;;;;;;;1999.90;999.90;;;-6.20;99.90;;;;;;5072092;28;20836;-71
2024/01/10 00:51:02;;;;;;;1999.90;999.90;;;-6.20;99.90;;;;;;5071853;28;20439;-72
2024/01/10 00:53:28;;;;;;;1999.90;999.90;;;-6.20;99.90;;;;;;5072980;28;20434;-71
2024/01/10 00:55:55;;;;;;;1999.90;999.90;;;-6.20;99.90;;;;;;5073697;28;20479;-72
2024/01/10 00:58:22;;;;;;;1999.90;999.90;;;-6.20;99.90;;;;;;5085092;28;20416;-73
2024/01/10 01:00:48;;;;;;;1999.90;999.90;;;-6.30;99.90;;;;;;5072378;28;20886;-72
2024/01/10 01:03:15;;;;;;;1999.90;999.90;;;-6.30;99.90;;;;;;5076196;28;20471;-72
2024/01/10 01:05:42;;;;;;;1999.90;999.90;;;-6.40;99.90;;;;;;5071212;28;21079;-72
2024/01/10 01:08:10;;;;;;;1999.90;999.90;;;-6.30;99.90;;;;;;5072835;28;20943;-73
2024/01/10 01:10:36;;;;;;;1999.90;999.90;;;-6.30;99.90;;;;;;5091345;28;20449;-73
2024/01/10 01:13:03;;;;;;;1999.90;999.90;;;-6.20;99.90;;;;;;5070577;28;20484;-71
2024/01/10 01:15:30;;;;;;;1999.90;999.90;;;-6.30;99.90;;;;;;5071042;28;20494;-72
2024/01/10 01:17:57;;;;;;;1999.90;999.90;;;-6.30;99.90;;;;;;5080969;28;20408;-74
2024/01/10 01:20:23;;;;;;;1999.90;999.90;;;-6.40;99.90;;;;;;5084726;28;20409;-71
2024/01/10 01:22:50;;;;;;;1999.90;999.90;;;-6.40;99.90;;;;;;5072780;28;20431;-71
2024/01/10 01:25:18;;;;;;;1999.90;999.90;;;-6.50;99.90;;;;;;5071256;28;20411;-70
2024/01/10 01:27:45;;;;;;;1999.90;999.90;;;-6.50;99.90;;;;;;5070757;28;20419;-72
2024/01/10 01:30:12;;;;;;;1999.90;999.90;;;-6.60;99.90;;;;;;5070399;28;20925;-71
2024/01/10 01:32:39;;;;;;;1999.90;999.90;;;-6.60;99.90;;;;;;5069326;28;20434;-71
2024/01/10 01:35:06;;;;;;;1999.90;999.90;;;-6.70;99.90;;;;;;5067445;28;20429;-73
2024/01/10 01:37:33;;;;;;;1999.90;999.90;;;-6.70;99.90;;;;;;5070953;28;20411;-72
2024/01/10 01:40:00;;;;;;;1999.90;999.90;;;-6.70;99.90;;;;;;5074254;28;20415;-72
2024/01/10 01:42:28;;;;;;;1999.90;999.90;;;-6.70;99.90;;;;;;5074702;28;20439;-72
2024/01/10 01:44:54;;;;;;;1999.90;999.90;;;-6.80;99.90;;;;;;5074160;28;20407;-73
2024/01/10 01:47:21;;;;;;;1999.90;999.90;;;-6.80;99.90;;;;;;5070952;28;20461;-72
2024/01/10 01:49:48;;;;;;;1999.90;999.90;;;-6.80;99.90;;;;;;5072500;28;20439;-71
2024/01/10 01:52:15;;;;;;;1999.90;999.90;;;-6.80;99.90;;;;;;5073042;28;20427;-73
2024/01/10 01:54:42;;;;;;;1999.90;999.90;;;-6.80;99.90;;;;;;5061071;28;20417;-72
2024/01/10 01:57:08;;;;;;;1999.90;999.90;;;-6.80;99.90;;;;;;5070583;28;20412;-70
2024/01/10 01:59:37;;;;;;;1999.90;999.90;;;-6.80;99.90;;;;;;5083699;28;20410;-76
2024/01/10 02:02:05;;;;;;;1999.90;999.90;;;-6.90;99.90;;;;;;5095805;28;20415;-75
2024/01/10 02:04:32;;;;;;;1999.90;999.90;;;-6.90;99.90;;;;;;5092390;28;20439;-74
2024/01/10 02:06:59;;;;;;;1999.90;999.90;;;-7.00;99.90;;;;;;5087479;28;20417;-74
2024/01/10 02:09:26;;;;;;;1999.90;999.90;;;-7.00;99.90;;;;;;5086274;28;20469;-71
2024/01/10 02:11:53;;;;;;;1999.90;999.90;;;-6.90;99.90;;;;;;5071263;28;20459;-72
2024/01/10 02:14:20;;;;;;;1999.90;999.90;;;-7.00;99.90;;;;;;5071983;28;20434;-74
2024/01/10 02:16:48;;;;;;;1999.90;999.90;;;-7.10;99.90;;;;;;5071146;28;20489;-70
2024/01/10 02:19:22;;;;;;;1999.90;999.90;;;-7.20;99.90;;;;;;5064434;28;20422;-69
2024/01/10 02:21:48;;;;;;;1999.90;999.90;;;-7.20;99.90;;;;;;5068667;28;20415;-72
2024/01/10 02:24:15;;;;;;;1999.90;999.90;;;-7.20;99.90;;;;;;5070170;28;20406;-71
2024/01/10 02:26:43;;;;;;;1999.90;999.90;;;-7.30;99.90;;;;;;5070076;28;20418;-71
2024/01/10 02:29:10;;;;;;;1999.90;999.90;;;-7.30;99.90;;;;;;5078127;28;20415;-72
2024/01/10 02:31:37;;;;;;;1999.90;999.90;;;-7.30;99.90;;;;;;5068661;28;20423;-71
2024/01/10 02:34:04;;;;;;;1999.90;999.90;;;-7.30;99.90;;;;;;5068040;28;20406;-72
2024/01/10 02:36:30;;;;;;;1999.90;999.90;;;-7.30;99.90;;;;;;5069208;28;20418;-70
2024/01/10 02:38:57;;;;;;;1999.90;999.90;;;-7.30;99.90;;;;;;5070049;28;20890;-71
2024/01/10 02:41:24;;;;;;;1999.90;999.90;;;-7.20;99.90;;;;;;5069950;28;20419;-71
2024/01/10 02:43:52;;;;;;;1999.90;999.90;;;-7.20;99.90;;;;;;5071794;28;20462;-69
2024/01/10 02:46:19;;;;;;;1999.90;999.90;;;-7.20;99.90;;;;;;5067594;28;20411;-71
2024/01/10 02:48:47;;;;;;;1999.90;999.90;;;-7.10;99.90;;;;;;5076345;28;20803;-74
2024/01/10 02:51:13;;;;;;;1999.90;999.90;;;-7.00;99.90;;;;;;5081782;28;20474;-72
2024/01/10 02:53:40;;;;;;;1999.90;999.90;;;-7.00;99.90;;;;;;5068638;28;20436;-72
2024/01/10 02:56:07;;;;;;;1999.90;999.90;;;-7.10;99.90;;;;;;5068541;28;20835;-71
2024/01/10 02:58:34;;;;;;;1999.90;999.90;;;-7.10;99.90;;;;;;5073754;28;21096;-70
2024/01/10 03:01:02;;;;;;;1999.90;999.90;;;-7.20;99.90;;;;;;5073572;28;20902;-72
2024/01/10 03:03:29;;;;;;;1999.90;999.90;;;-7.20;99.90;;;;;;5071724;28;20459;-72
2024/01/10 03:05:55;;;;;;;1999.90;999.90;;;-7.20;99.90;;;;;;5073556;28;20439;-72
2024/01/10 03:08:22;;;;;;;1999.90;999.90;;;-7.20;99.90;;;;;;5079280;28;20406;-72
2024/01/10 03:10:49;;;;;;;1999.90;999.90;;;-7.20;99.90;;;;;;5077219;28;20477;-72
2024/01/10 03:13:15;;;;;;;1999.90;999.90;;;-7.10;99.90;;;;;;5071884;28;20662;-72
2024/01/10 03:15:42;;;;;;;1999.90;999.90;;;-7.10;99.90;;;;;;5069671;28;20431;-72
2024/01/10 03:18:10;;;;;;;1999.90;999.90;;;-7.20;99.90;;;;;;5081522;28;20417;-71
2024/01/10 03:20:37;;;;;;;1999.90;999.90;;;-7.30;99.90;;;;;;5089659;28;20483;-72
2024/01/10 03:23:03;;;;;;;1999.90;999.90;;;-7.20;99.90;;;;;;5080575;28;20450;-72
2024/01/10 03:25:30;;;;;;;1999.90;999.90;;;-7.20;99.90;;;;;;5070503;28;20437;-72
2024/01/10 03:27:57;;;;;;;1999.90;999.90;;;-7.30;99.90;;;;;;5073267;28;20415;-70
2024/01/10 03:30:24;;;;;;;1999.90;999.90;;;-7.30;99.90;;;;;;5078137;28;20475;-71
2024/01/10 03:32:51;;;;;;;1999.90;999.90;;;-7.40;99.90;;;;;;5076009;28;20888;-71
2024/01/10 03:35:19;;;;;;;1999.90;999.90;;;-7.50;99.90;;;;;;5073143;28;20407;-69
2024/01/10 03:37:45;;;;;;;1999.90;999.90;;;-7.50;99.90;;;;;;5073265;28;20411;-72
2024/01/10 03:40:12;;;;;;;1999.90;999.90;;;-7.50;99.90;;;;;;5078761;28;20413;-71
2024/01/10 03:42:39;;;;;;;1999.90;999.90;;;-7.50;99.90;;;;;;5076393;28;20917;-71
2024/01/10 03:45:06;;;;;;;1999.90;999.90;;;-7.60;99.90;;;;;;5092101;28;20966;-73
2024/01/10 03:47:33;;;;;;;1999.90;999.90;;;-7.70;99.90;;;;;;5100478;28;20776;-74
2024/01/10 03:50:00;;;;;;;1999.90;999.90;;;-7.80;99.90;;;;;;5073489;28;20412;-70
2024/01/10 03:52:28;;;;;;;1999.90;999.90;;;-7.80;99.90;;;;;;5070518;28;20465;-72
2024/01/10 03:54:54;;;;;;;1999.90;999.90;;;-7.80;99.90;;;;;;5071634;28;20517;-72
2024/01/10 03:57:21;;;;;;;1999.90;999.90;;;-7.70;99.90;;;;;;5072745;28;21095;-70
2024/01/10 03:59:48;;;;;;;1999.90;999.90;;;-7.80;99.90;;;;;;5072255;28;20415;-73
2024/01/10 04:02:14;;;;;;;1999.90;999.90;;;-7.80;99.90;;;;;;5071607;28;20431;-71
2024/01/10 04:04:41;;;;;;;1999.90;999.90;;;-7.80;99.90;;;;;;5071379;28;20408;-68
2024/01/10 04:07:08;;;;;;;1999.90;999.90;;;-7.90;99.90;;;;;;5070280;28;20411;-70
2024/01/10 04:09:36;;;;;;;1999.90;999.90;;;-7.80;99.90;;;;;;5072014;28;20785;-70
2024/01/10 04:12:03;;;;;;;1999.90;999.90;;;-7.80;99.90;;;;;;5070813;28;20423;-69
2024/01/10 04:14:30;;;;;;;1999.90;999.90;;;-7.90;99.90;;;;;;5072468;28;20415;-72
2024/01/10 04:16:58;;;;;;;1999.90;999.90;;;-7.90;99.90;;;;;;5074795;28;21301;-72
2024/01/10 04:19:25;;;;;;;1999.90;999.90;;;-7.90;99.90;;;;;;5072119;28;20451;-72
2024/01/10 04:21:52;;;;;;;1999.90;999.90;;;-7.90;99.90;;;;;;5072018;28;20946;-72
2024/01/10 04:24:18;;;;;;;1999.90;999.90;;;-8.00;99.90;;;;;;5078147;28;20449;-71
2024/01/10 04:26:46;;;;;;;1999.90;999.90;;;-7.90;99.90;;;;;;5074790;28;20416;-72
2024/01/10 04:29:13;;;;;;;1999.90;999.90;;;-7.90;99.90;;;;;;5073932;28;20415;-74
2024/01/10 04:31:40;;;;;;;1999.90;999.90;;;-7.90;99.90;;;;;;5077472;28;20434;-71
2024/01/10 04:34:06;;;;;;;1999.90;999.90;;;-7.90;99.90;;;;;;5071657;28;20421;-70
2024/01/10 04:36:33;;;;;;;1999.90;999.90;;;-7.90;99.90;;;;;;5073110;28;20412;-71
2024/01/10 04:39:00;;;;;;;1999.90;999.90;;;-7.90;99.90;;;;;;5072252;28;20438;-73
2024/01/10 04:41:26;;;;;;;1999.90;999.90;;;-7.90;99.90;;;;;;5072535;28;20489;-70
2024/01/10 04:43:54;;;;;;;1999.90;999.90;;;-8.00;99.90;;;;;;5069525;28;20483;-71
2024/01/10 04:46:21;;;;;;;1999.90;999.90;;;-8.00;99.90;;;;;;5073966;28;20411;-73
2024/01/10 04:48:48;;;;;;;1999.90;999.90;;;-8.00;99.90;;;;;;5079007;28;20473;-70
2024/01/10 04:51:15;;;;;;;1999.90;999.90;;;-7.90;99.90;;;;;;5079197;28;20984;-72
2024/01/10 04:53:41;;;;;;;1999.90;999.90;;;-7.90;99.90;;;;;;5066742;28;20876;-72
2024/01/10 04:56:08;;;;;;;1999.90;999.90;;;-7.90;99.90;;;;;;5069095;28;20431;-69
2024/01/10 04:58:36;;;;;;;1999.90;999.90;;;-7.90;99.90;;;;;;5074142;28;20419;-74
2024/01/10 05:01:05;;;;;;;1999.90;999.90;;;-7.90;99.90;;;;;;5071647;28;20884;-72
2024/01/10 05:03:32;;;;;;;1999.90;999.90;;;-7.90;99.90;;;;;;5069311;28;20438;-70
2024/01/10 05:05:59;;;;;;;1999.90;999.90;;;-7.90;99.90;;;;;;5072449;28;20461;-73
2024/01/10 05:08:26;;;;;;;1999.90;999.90;;;-8.00;99.90;;;;;;5071262;28;20415;-71
2024/01/10 05:10:52;;;;;;;1999.90;999.90;;;-7.90;99.90;;;;;;5084195;28;20500;-72
2024/01/10 05:13:19;;;;;;;1999.90;999.90;;;-7.90;99.90;;;;;;5076497;28;20428;-72
2024/01/10 05:15:46;;;;;;;1999.90;999.90;;;-7.90;99.90;;;;;;5066339;28;20405;-74
2024/01/10 05:18:14;;;;;;;1999.90;999.90;;;-8.00;99.90;;;;;;5070551;28;20502;-72
2024/01/10 05:20:40;;;;;;;1999.90;999.90;;;-7.90;99.90;;;;;;5070853;28;20433;-72
2024/01/10 05:23:07;;;;;;;1999.90;999.90;;;-7.90;99.90;;;;;;5070124;28;20442;-71
2024/01/10 05:25:34;;;;;;;1999.90;999.90;;;-7.90;99.90;;;;;;5070199;28;20484;-71
2024/01/10 05:28:00;;;;;;;1999.90;999.90;;;-7.90;99.90;;;;;;5079201;28;20453;-73
2024/01/10 05:30:27;;;;;;;1999.90;999.90;;;-8.00;99.90;;;;;;5082166;28;20406;-72
2024/01/10 05:32:54;;;;;;;1999.90;999.90;;;-8.00;99.90;;;;;;5073158;28;20428;-69
2024/01/10 05:35:22;;;;;;;1999.90;999.90;;;-8.00;99.90;;;;;;5070848;28;20481;-72
2024/01/10 05:37:49;;;;;;;1999.90;999.90;;;-8.10;99.90;;;;;;5071792;28;20507;-74
2024/01/10 05:40:16;;;;;;;1999.90;999.90;;;-8.20;99.90;;;;;;5072649;28;20415;-72
2024/01/10 05:42:43;;;;;;;1999.90;999.90;;;-8.20;99.90;;;;;;5070491;28;20424;-72
2024/01/10 05:45:10;;;;;;;1999.90;999.90;;;-8.20;99.90;;;;;;5070729;28;20411;-72
2024/01/10 05:47:37;;;;;;;1999.90;999.90;;;-8.20;99.90;;;;;;5075071;28;20435;-71
2024/01/10 05:50:06;;;;;;;1999.90;999.90;;;-8.20;99.90;;;;;;5070767;28;20944;-71
2024/01/10 05:52:34;;;;;;;1999.90;999.90;;;-8.30;99.90;;;;;;5069280;28;20434;-71
2024/01/10 05:55:01;;;;;;;1999.90;999.90;;;-8.40;99.90;;;;;;5089312;28;20409;-73
2024/01/10 05:57:28;;;;;;;1999.90;999.90;;;-8.40;99.90;;;;;;5096340;28;20479;-76
2024/01/10 05:59:56;;;;;;;1999.90;999.90;;;-8.40;99.90;;;;;;5082656;28;20426;-73
2024/01/10 06:02:24;;;;;;;1999.90;999.90;;;-8.50;99.90;;;;;;5069745;28;20413;-70
2024/01/10 06:04:50;;;;;;;1999.90;999.90;;;-8.20;99.90;;;;;;5067059;28;20406;-74
2024/01/10 06:07:17;;;;;;;1999.90;999.90;;;-8.10;99.90;;;;;;5081742;28;20406;-72
2024/01/10 06:09:45;;;;;;;1999.90;999.90;;;-8.00;99.90;;;;;;5080365;28;20418;-72
2024/01/10 06:12:12;;;;;;;1999.90;999.90;;;-8.10;99.90;;;;;;5070004;28;20431;-71
2024/01/10 06:14:39;;;;;;;1999.90;999.90;;;-8.00;99.90;;;;;;5071483;28;20435;-72
2024/01/10 06:17:06;;;;;;;1999.90;999.90;;;-8.10;99.90;;;;;;5070380;28;20790;-72
2024/01/10 06:19:32;;;;;;;1999.90;999.90;;;-8.20;99.90;;;;;;5070156;28;20919;-71
2024/01/10 06:21:59;;;;;;;1999.90;999.90;;;-8.10;99.90;;;;;;5085390;28;20426;-76
2024/01/10 06:24:27;;;;;;;1999.90;999.90;;;-8.20;99.90;;;;;;5078019;28;20439;-71
2024/01/10 06:26:55;;;;;;;1999.90;999.90;;;-8.20;99.90;;;;;;5069850;28;20423;-71
2024/01/10 06:29:21;;;;;;;1999.90;999.90;;;-8.30;99.90;;;;;;5069178;28;20419;-71
2024/01/10 06:31:48;;;;;;;1999.90;999.90;;;-8.30;99.90;;;;;;5068237;28;20929;-72
2024/01/10 06:34:15;;;;;;;1999.90;999.90;;;-8.30;99.90;;;;;;5076921;28;20551;-71
2024/01/10 06:36:41;;;;;;;1999.90;999.90;;;-8.30;99.90;;;;;;5072420;28;20412;-72
2024/01/10 06:39:12;;;;;;;1999.90;999.90;;;-8.30;99.90;;;;;;5070767;28;20425;-74
2024/01/10 06:41:39;;;;;;;1999.90;999.90;;;-8.40;99.90;;;;;;5082477;28;20787;-70
2024/01/10 06:44:07;;;;;;;1999.90;999.90;;;-8.40;99.90;;;;;;5071410;28;20429;-71
2024/01/10 06:46:33;;;;;;;1999.90;999.90;;;-8.40;99.90;;;;;;5080750;28;20451;-72
2024/01/10 06:49:00;;;;;;;1999.90;999.90;;;-8.40;99.90;;;;;;5090038;28;20841;-71
2024/01/10 06:51:27;;;;;;;1999.90;999.90;;;-8.30;99.90;;;;;;5100925;28;20451;-73
2024/01/10 06:54:00;;;;;;;1999.90;999.90;;;-8.20;99.90;;;;;;5081035;28;21134;-73
2024/01/10 06:56:27;;;;;;;1999.90;999.90;;;-8.20;99.90;;;;;;5073859;28;20483;-72
2024/01/10 06:58:54;;;;;;;1999.90;999.90;;;-8.20;99.90;;;;;;5075356;28;20455;-72
2024/01/10 07:01:22;;;;;;;1999.90;999.90;;;-8.20;99.90;;;;;;5085134;28;20410;-71
2024/01/10 07:03:49;;;;;;;1999.90;999.90;;;-8.20;99.90;;;;;;5072657;28;20510;-72
2024/01/10 07:06:16;;;;;;;1999.90;999.90;;;-8.20;99.90;;;;;;5067977;28;20936;-71
2024/01/10 07:08:44;;;;;;;1999.90;999.90;;;-8.20;99.90;;;;;;5069291;28;20407;-70
2024/01/10 07:11:11;;;;;;;1999.90;999.90;;;-8.30;99.90;;;;;;5066892;28;20411;-72
2024/01/10 07:13:38;;;;;;;1999.90;999.90;;;-8.30;99.90;;;;;;5068227;28;20514;-71
2024/01/10 07:16:05;;;;;;;1999.90;999.90;;;-8.30;99.90;;;;;;5072713;28;20982;-70
2024/01/10 07:18:33;;;;;;;1999.90;999.90;;;-8.30;99.90;;;;;;5090158;28;20426;-72
2024/01/10 07:20:59;;;;;;;1999.90;999.90;;;-8.40;99.90;;;;;;5087709;28;20409;-71
2024/01/10 07:23:26;;;;;;;1999.90;999.90;;;-8.40;99.90;;;;;;5074246;28;20453;-71
2024/01/10 07:25:53;;;;;;;1999.90;999.90;;;-8.50;99.90;;;;;;5071326;28;20488;-72
2024/01/10 07:28:20;;;;;;;1999.90;999.90;;;-8.50;99.90;;;;;;5090069;28;20471;-72
2024/01/10 07:30:47;;;;;;;1999.90;999.90;;;-8.20;99.90;;;;;;5090210;28;20418;-71
2024/01/10 07:33:14;;;;;;;1999.90;999.90;;;-8.60;99.90;;;;;;5082739;28;20429;-71
2024/01/10 07:35:42;;;;;;;1999.90;999.90;;;-8.50;99.90;;;;;;5069777;28;20465;-73
2024/01/10 07:38:08;;;;;;;1999.90;999.90;;;-8.40;99.90;;;;;;5073588;28;20936;-69
2024/01/10 07:40:35;;;;;;;1999.90;999.90;;;-8.40;99.90;;;;;;5080738;28;20917;-73
2024/01/10 07:43:02;;;;;;;1999.90;999.90;;;-8.30;99.90;;;;;;5072781;28;20778;-72
2024/01/10 07:45:29;;;;;;;1999.90;999.90;;;-8.30;99.90;;;;;;5082028;28;20412;-69
2024/01/10 07:47:56;;;;;;;1999.90;999.90;;;-8.30;99.90;;;;;;5091883;28;20406;-74
2024/01/10 07:50:27;;;;;;;1999.90;999.90;;;-8.20;99.90;;;;;;5086776;28;20456;-71
2024/01/10 07:52:55;;;;;;;1999.90;999.90;;;-8.10;99.90;;;;;;5072925;28;20428;-72
2024/01/10 07:55:21;;;;;;;1999.90;999.90;;;-8.10;99.90;;;;;;5086889;28;20455;-71
2024/01/10 07:57:48;;;;;;;1999.90;999.90;;;-8.10;99.90;;;;;;5072239;28;20929;-70
2024/01/10 08:00:16;;;;;;;1999.90;999.90;;;-8.00;99.90;;;;;;5077530;28;20455;-72
2024/01/10 08:02:42;;;;;;;1999.90;999.90;;;-7.90;99.90;;;;;;5088694;28;20446;-72
2024/01/10 08:05:09;;;;;;;1999.90;999.90;;;-8.00;99.90;;;;;;5062817;28;20481;-71
2024/01/10 08:07:36;;;;;;;1999.90;999.90;;;-7.90;99.90;;;;;;5072047;28;20428;-72
2024/01/10 08:10:05;;;;;;;1999.90;999.90;;;-7.90;99.90;;;;;;5092072;28;20425;-72
2024/01/10 08:12:32;;;;;;;1999.90;999.90;;;-7.80;99.90;;;;;;5085761;28;20431;-71
2024/01/10 08:14:58;;;;;;;1999.90;999.90;;;-7.80;99.90;;;;;;5084561;28;20438;-74
2024/01/10 08:17:25;;;;;;;1999.90;999.90;;;-7.80;99.90;;;;;;5099534;28;20534;-72
2024/01/10 08:19:52;;;;;;;1999.90;999.90;;;-7.70;99.90;;;;;;5105422;28;20477;-71
2024/01/10 08:22:19;;;;;;;1999.90;999.90;;;-7.70;99.90;;;;;;5107047;28;20798;-72
2024/01/10 08:24:46;;;;;;;1999.90;999.90;;;-7.60;99.90;;;;;;5083532;28;20458;-72
2024/01/10 08:27:14;;;;;;;1999.90;999.90;;;-7.70;99.90;;;;;;5071933;28;20485;-72
2024/01/10 08:29:41;;;;;;;1999.90;999.90;;;-7.60;99.90;;;;;;5089051;28;20418;-71
2024/01/10 08:32:08;;;;;;;1999.90;999.90;;;-7.50;99.90;;;;;;5092693;28;20803;-72
2024/01/10 08:34:34;;;;;;;1999.90;999.90;;;-7.40;99.90;;;;;;5073434;28;20438;-73
2024/01/10 08:37:01;;;;;;;1999.90;999.90;;;-7.30;99.90;;;;;;5070307;28;20481;-71
2024/01/10 08:39:30;;;;;;;1999.90;999.90;;;-7.20;99.90;;;;;;5070599;28;20432;-71
2024/01/10 08:41:57;;;;;;;1999.90;999.90;;;-7.10;99.90;;;;;;5069513;28;20451;-72
2024/01/10 08:44:25;;;;;;;1999.90;999.90;;;-7.00;99.90;;;;;;5069934;28;20416;-71
2024/01/10 08:46:52;;;;;;;1999.90;999.90;;;-6.90;99.90;;;;;;5071723;28;20951;-72
2024/01/10 08:49:19;;;;;;;1999.90;999.90;;;-6.70;99.90;;;;;;5072387;28;20416;-72
2024/01/10 08:51:47;;;;;;;1999.90;999.90;;;-6.60;99.90;;;;;;5076739;28;20412;-72
2024/01/10 08:54:16;;;;;;;1999.90;999.90;;;-6.50;99.90;;;;;;5089569;28;20494;-73
2024/01/10 08:56:43;;;;;;;1999.90;999.90;;;-6.30;99.90;;;;;;5079484;28;20422;-71
2024/01/10 08:59:11;;;;;;;1999.90;999.90;;;-6.30;99.90;;;;;;5071741;28;20563;-72
2024/01/10 09:01:40;;;;;;;1999.90;999.90;;;-6.30;99.90;;;;;;5074374;28;20408;-72
2024/01/10 09:04:07;;;;;;;1999.90;999.90;;;-6.30;99.90;;;;;;5077936;28;20415;-72
2024/01/10 09:06:35;;;;;;;1999.90;999.90;;;-6.10;99.90;;;;;;5069678;28;20895;-72
2024/01/10 09:09:02;;;;;;;1999.90;999.90;;;-6.10;99.90;;;;;;5071660;28;20439;-70
2024/01/10 09:11:29;;;;;;;1999.90;999.90;;;-6.00;99.90;;;;;;5071973;28;20423;-72
2024/01/10 09:13:56;;;;;;;1999.90;999.90;;;-5.90;99.90;;;;;;5071019;28;20454;-72
2024/01/10 09:16:22;;;;;;;1999.90;999.90;;;-5.80;99.90;;;;;;5071619;28;20411;-74
2024/01/10 09:18:53;;;;;;;1999.90;999.90;;;-5.80;99.90;;;;;;5070485;28;20465;-71
2024/01/10 09:21:20;;;;;;;1999.90;999.90;;;-5.70;99.90;;;;;;5072245;28;20469;-72
2024/01/10 09:23:50;;;;;;;1999.90;999.90;;;-5.60;99.90;;;;;;5071912;28;20482;-73
2024/01/10 09:26:17;;;;;;;1999.90;999.90;;;-5.60;99.90;;;;;;5072020;28;20451;-72
2024/01/10 09:28:44;;;;;;;1999.90;999.90;;;-5.60;99.90;;;;;;5072249;28;20422;-73
2024/01/10 09:31:11;;;;;;;1999.90;999.90;;;-5.40;99.90;;;;;;5071185;28;20431;-70
2024/01/10 09:33:37;;;;;;;1999.90;999.90;;;-5.40;99.90;;;;;;5070544;28;20438;-73
2024/01/10 09:36:06;;;;;;;1999.90;999.90;;;-5.40;99.90;;;;;;5070931;28;20423;-72
2024/01/10 09:38:36;;;;;;;1999.90;999.90;;;-5.40;99.90;;;;;;5071005;28;20886;-69
2024/01/10 09:41:04;;;;;;;1999.90;999.90;;;-5.40;99.90;;;;;;5068379;28;20530;-73
2024/01/10 09:43:31;;;;;;;1999.90;999.90;;;-5.40;99.90;;;;;;5070068;28;20460;-70
2024/01/10 09:46:00;;;;;;;1999.90;999.90;;;-5.40;99.90;;;;;;5071683;28;20435;-71
2024/01/10 09:48:28;;;;;;;1999.90;999.90;;;-5.30;99.90;;;;;;5071257;28;20420;-71
2024/01/10 09:50:55;;;;;;;1999.90;999.90;;;-5.10;99.90;;;;;;5090599;28;20410;-73
2024/01/10 09:53:24;;;;;;;1999.90;999.90;;;-5.20;99.90;;;;;;5091259;28;20422;-72
2024/01/10 09:55:51;;;;;;;1999.90;999.90;;;-5.10;99.90;;;;;;5073164;28;20431;-72
2024/01/10 09:58:18;;;;;;;1999.90;999.90;;;-4.90;99.90;;;;;;5070703;28;20416;-72
2024/01/10 10:00:45;;;;;;;1999.90;999.90;;;-5.10;99.90;;;;;;5087908;28;20463;-74
2024/01/10 10:03:12;;;;;;;1999.90;999.90;;;-5.20;99.90;;;;;;5087276;28;20407;-72
2024/01/10 10:05:41;;;;;;;1999.90;999.90;;;-5.10;99.90;;;;;;5070816;28;20436;-71
2024/01/10 10:08:09;;;;;;;1999.90;999.90;;;-4.90;99.90;;;;;;5070734;28;20480;-71
2024/01/10 10:10:42;;;;;;;1999.90;999.90;;;-5.00;99.90;;;;;;5086185;28;20445;-71
2024/01/10 10:13:10;;;;;;;1999.90;999.90;;;-5.10;99.90;;;;;;5090926;28;20430;-72
2024/01/10 10:15:37;;;;;;;1999.90;999.90;;;-5.00;99.90;;;;;;5078768;28;20432;-71
2024/01/10 10:18:04;;;;;;;1999.90;999.90;;;-4.90;99.90;;;;;;5070308;28;20415;-72
2024/01/10 10:20:32;;;;;;;1999.90;999.90;;;-4.90;99.90;;;;;;5078742;28;20454;-73
2024/01/10 10:23:01;;;;;;;1999.90;999.90;;;-4.90;99.90;;;;;;5071194;28;20412;-71
2024/01/10 10:25:31;;;;;;;1999.90;999.90;;;-4.80;99.90;;;;;;5079710;28;20775;-71
2024/01/10 10:27:59;;;;;;;1999.90;999.90;;;-4.80;99.90;;;;;;5077788;28;20793;-70
2024/01/10 10:30:26;;;;;;;1999.90;999.90;;;-4.70;99.90;;;;;;5067196;28;20450;-71
2024/01/10 10:32:54;;;;;;;1999.90;999.90;;;-4.60;99.90;;;;;;5072877;28;20455;-71
2024/01/10 10:35:21;;;;;;;1999.90;999.90;;;-4.80;99.90;;;;;;5071511;28;20592;-72
2024/01/10 10:37:49;;;;;;;1999.90;999.90;;;-4.80;99.90;;;;;;5068213;28;20885;-72
2024/01/10 10:40:16;;;;;;;1999.90;999.90;;;-4.80;99.90;;;;;;5068961;28;20963;-71
2024/01/10 10:42:46;;;;;;;1999.90;999.90;;;-4.30;99.90;;;;;;5070949;28;20481;-72
2024/01/10 10:45:17;;;;;;;1999.90;999.90;;;-4.70;99.90;;;;;;5070155;28;20498;-70
2024/01/10 10:47:48;;;;;;;1999.90;999.90;;;-4.80;99.90;;;;;;5074660;28;20435;-73
2024/01/10 10:50:21;;;;;;;1999.90;999.90;;;-4.60;99.90;;;;;;5085085;28;20410;-70
2024/01/10 10:52:49;;;;;;;1999.90;999.90;;;-4.60;99.90;;;;;;5071494;28;20439;-71
2024/01/10 10:55:17;;;;;;;1999.90;999.90;;;-4.60;99.90;;;;;;5074783;28;20899;-73
2024/01/10 10:57:45;;;;;;;1999.90;999.90;;;-4.40;99.90;;;;;;5090699;28;20421;-72
2024/01/10 11:00:16;;;;;;;1999.90;999.90;;;-4.50;99.90;;;;;;5086061;28;20554;-72
2024/01/10 11:02:43;;;;;;;1999.90;999.90;;;-4.50;99.90;;;;;;5068050;28;20962;-71
2024/01/10 11:05:10;;;;;;;1999.90;999.90;;;-4.10;99.90;;;;;;5072049;28;20463;-71
2024/01/10 11:07:38;;;;;;;1999.90;999.90;;;-4.40;99.90;;;;;;5090757;28;20410;-72
2024/01/10 11:10:09;;;;;;;1999.90;999.90;;;-4.40;99.90;;;;;;5088076;28;20432;-74
2024/01/10 11:12:55;;;;;;;1999.90;999.90;;;-4.30;99.90;;;;;;5067108;28;20479;-72
2024/01/10 11:15:50;;;;;;;1999.90;999.90;;;-4.20;99.90;;;;;;5075061;28;20459;-72
2024/01/10 11:18:41;;;;;;;1999.90;999.90;;;-4.10;99.90;;;;;;5094410;28;20416;-72
2024/01/10 11:21:20;;;;;;;1999.90;999.90;;;-4.10;99.90;;;;;;5086000;28;20436;-72
2024/01/10 11:23:50;;;;;;;1999.90;999.90;;;-4.10;99.90;;;;;;5080994;28;20423;-72
2024/01/10 11:26:19;;;;;;;1999.90;999.90;;;-4.10;99.90;;;;;;5084821;28;20420;-71
2024/01/10 11:28:46;;;;;;;1999.90;999.90;;;-4.10;99.90;;;;;;5083862;28;20425;-72
2024/01/10 11:31:16;;;;;;;1999.90;999.90;;;-3.90;99.90;;;;;;5083446;28;20431;-71
2024/01/10 11:33:44;;;;;;;1999.90;999.90;;;-4.00;99.90;;;;;;5074429;28;20454;-71
2024/01/10 11:36:14;;;;;;;1999.90;999.90;;;-3.90;99.90;;;;;;5072881;28;20921;-69
2024/01/10 11:38:49;;;;;;;1999.90;999.90;;;-4.30;99.90;;;;;;5073691;28;20491;-72
2024/01/10 11:41:25;;;;;;;1999.90;999.90;;;-3.80;99.90;;;;;;5075771;28;20433;-72
2024/01/10 11:44:26;;;;;;;1999.90;999.90;;;-3.70;99.90;;;;;;5074859;28;20428;-72
2024/01/10 11:46:55;;;;;;;1999.90;999.90;;;-3.80;99.90;;;;;;5075333;28;20419;-70
2024/01/10 11:49:24;;;;;;;1999.90;999.90;;;-3.80;99.90;;;;;;5078668;28;20405;-71
2024/01/10 11:51:53;;;;;;;1999.90;999.90;;;-3.70;99.90;;;;;;5093618;28;20416;-69
2024/01/10 11:54:40;;;;;;;1999.90;999.90;;;-3.70;99.90;;;;;;5093508;28;20425;-72
2024/01/10 11:57:12;;;;;;;1999.90;999.90;;;-3.80;99.90;;;;;;5075485;28;20424;-70
2024/01/10 11:59:40;;;;;;;1999.90;999.90;;;-3.80;99.90;;;;;;5074766;28;20434;-71
2024/01/10 12:02:09;;;;;;;1999.90;999.90;;;-3.80;99.90;;;;;;5076350;28;20499;-72